Time;durP1;ratioP1;P1;durP2;ratioP2;P2;SDS_P1;SDS_P2;PMS_P1;PMS_P2;Temp;Humidity;BMP_temperature;BMP_pressure;BME280_temperature;BME280_humidity;BME280_pressure;Samples;Min_cycle;Max_cycle;Signal;HPM_P1;HPM_P2
2021/03/15 00:02:23;;;;;;;7.03;5.20;;;6.00;99.90;;;;;;5089733;28;20215;-75
2021/03/15 00:04:49;;;;;;;9.17;5.63;;;5.90;99.90;;;;;;5098941;28;20219;-75
2021/03/15 00:07:14;;;;;;;7.77;6.40;;;6.00;99.90;;;;;;5099904;28;20196;-75
2021/03/15 00:09:40;;;;;;;7.90;5.77;;;6.00;99.90;;;;;;5097615;28;20713;-75
2021/03/15 00:12:07;;;;;;;8.50;6.47;;;6.10;99.90;;;;;;5084529;28;20188;-75
2021/03/15 00:14:33;;;;;;;7.80;5.63;;;6.20;99.90;;;;;;5093810;28;20229;-76
2021/03/15 00:16:59;;;;;;;10.33;6.60;;;6.00;99.90;;;;;;5111342;28;20802;-76
2021/03/15 00:19:24;;;;;;;9.80;6.50;;;6.00;99.90;;;;;;5079237;28;20202;-75
2021/03/15 00:21:50;;;;;;;8.70;7.10;;;6.20;99.90;;;;;;5065558;28;20574;-76
2021/03/15 00:24:16;;;;;;;14.50;6.83;;;6.00;99.90;;;;;;5089701;28;20203;-75
2021/03/15 00:26:41;;;;;;;7.93;6.47;;;6.10;99.90;;;;;;5084384;28;20181;-76
2021/03/15 00:29:07;;;;;;;9.93;7.03;;;5.80;99.90;;;;;;5093706;28;20204;-75
2021/03/15 00:31:33;;;;;;;10.67;7.20;;;5.80;99.90;;;;;;5099281;28;20176;-76
2021/03/15 00:33:59;;;;;;;11.27;8.07;;;6.00;99.90;;;;;;5097049;28;20429;-75
2021/03/15 00:36:24;;;;;;;11.77;7.90;;;5.90;99.90;;;;;;5069025;28;20318;-76
2021/03/15 00:38:51;;;;;;;12.67;6.97;;;5.80;99.90;;;;;;5089388;28;20191;-75
2021/03/15 00:41:17;;;;;;;10.83;7.37;;;5.90;99.90;;;;;;5080008;28;20188;-75
2021/03/15 00:43:42;;;;;;;10.37;7.10;;;6.00;99.90;;;;;;5097246;28;20472;-76
2021/03/15 00:46:08;;;;;;;12.00;6.30;;;6.00;99.90;;;;;;5090192;28;20482;-75
2021/03/15 00:48:34;;;;;;;7.90;6.83;;;6.10;99.90;;;;;;5088930;28;20196;-75
2021/03/15 00:51:00;;;;;;;11.07;7.40;;;6.00;99.90;;;;;;5098736;28;20440;-75
2021/03/15 00:53:25;;;;;;;11.33;7.17;;;5.90;99.90;;;;;;5109261;28;20240;-75
2021/03/15 00:55:51;;;;;;;8.80;6.67;;;6.10;99.90;;;;;;5102086;28;20199;-75
2021/03/15 00:58:17;;;;;;;11.23;8.00;;;6.10;99.90;;;;;;5092913;28;20191;-75
2021/03/15 01:00:45;;;;;;;11.87;7.10;;;6.10;99.90;;;;;;5102497;28;20192;-76
2021/03/15 01:03:11;;;;;;;8.03;6.90;;;6.00;99.90;;;;;;5092333;28;20211;-76
2021/03/15 01:05:38;;;;;;;16.20;8.27;;;6.10;99.90;;;;;;5102860;28;20433;-76
2021/03/15 01:08:10;;;;;;;12.73;8.00;;;6.10;99.90;;;;;;5109828;28;20845;-75
2021/03/15 01:10:37;;;;;;;11.47;8.30;;;6.00;99.90;;;;;;5107692;28;21119;-75
2021/03/15 01:13:04;;;;;;;11.20;9.97;;;6.20;99.90;;;;;;5092081;28;20445;-76
2021/03/15 01:15:30;;;;;;;10.60;9.30;;;6.20;99.90;;;;;;5093067;28;20505;-75
2021/03/15 01:17:57;;;;;;;17.60;10.50;;;6.20;99.90;;;;;;5108371;28;20821;-75
2021/03/15 01:20:23;;;;;;;17.70;9.80;;;6.40;99.90;;;;;;5098788;28;20777;-75
2021/03/15 01:22:48;;;;;;;14.10;9.70;;;6.30;99.90;;;;;;5093096;28;20424;-75
2021/03/15 01:25:16;;;;;;;12.97;9.00;;;6.20;99.90;;;;;;5108710;28;20429;-75
2021/03/15 01:27:41;;;;;;;11.67;8.03;;;6.10;99.90;;;;;;5091678;28;20536;-75
2021/03/15 01:30:11;;;;;;;13.03;7.63;;;6.20;99.90;;;;;;5095486;28;20430;-75
2021/03/15 01:32:36;;;;;;;9.70;7.90;;;6.10;99.90;;;;;;5108614;28;20183;-76
2021/03/15 01:35:04;;;;;;;8.93;6.90;;;6.10;99.90;;;;;;5103577;28;20425;-75
2021/03/15 01:37:29;;;;;;;11.90;6.57;;;6.10;99.90;;;;;;5107635;28;20426;-75
2021/03/15 01:39:55;;;;;;;9.83;6.00;;;6.20;99.90;;;;;;5107136;28;20422;-75
2021/03/15 01:42:21;;;;;;;9.80;5.73;;;6.00;99.90;;;;;;5073409;28;20185;-75
2021/03/15 01:44:47;;;;;;;7.77;5.60;;;6.10;99.90;;;;;;5086803;28;20611;-76
2021/03/15 01:47:12;;;;;;;8.23;6.33;;;6.00;99.90;;;;;;5093616;28;20203;-75
2021/03/15 01:49:38;;;;;;;7.57;5.50;;;6.20;99.90;;;;;;5088912;28;20187;-76
2021/03/15 01:52:04;;;;;;;8.23;5.67;;;6.20;99.90;;;;;;5107926;28;20180;-76
2021/03/15 01:54:30;;;;;;;10.40;5.90;;;6.30;99.90;;;;;;5109368;28;20422;-76
2021/03/15 01:56:56;;;;;;;7.80;5.53;;;6.20;99.90;;;;;;5082166;28;20447;-75
2021/03/15 01:59:22;;;;;;;6.23;5.20;;;6.00;99.90;;;;;;5088367;28;20422;-76
2021/03/15 02:01:48;;;;;;;9.00;5.30;;;6.10;99.90;;;;;;5075887;28;20671;-75
2021/03/15 02:04:15;;;;;;;7.97;5.10;;;6.00;99.90;;;;;;5107880;28;20465;-75
2021/03/15 02:06:41;;;;;;;9.87;4.70;;;6.10;99.90;;;;;;5088960;28;20892;-76
2021/03/15 02:09:07;;;;;;;6.40;5.50;;;5.90;99.90;;;;;;5087022;28;20982;-76
2021/03/15 02:12:10;;;;;;;6.70;4.70;;;5.90;99.90;;;;;;5101562;28;20424;-75
2021/03/15 02:15:08;;;;;;;8.30;5.60;;;6.00;99.90;;;;;;5090803;28;20183;-75
2021/03/15 02:17:45;;;;;;;6.57;4.73;;;6.10;99.90;;;;;;5097252;28;20440;-76
2021/03/15 02:20:30;;;;;;;7.70;4.80;;;6.30;99.90;;;;;;5104211;28;20414;-76
2021/03/15 02:23:18;;;;;;;8.23;6.00;;;6.10;99.90;;;;;;5106123;28;20421;-75
2021/03/15 02:25:50;;;;;;;8.23;5.60;;;6.20;99.90;;;;;;5108856;28;20442;-76
2021/03/15 02:28:30;;;;;;;9.73;6.73;;;6.20;99.90;;;;;;5087625;28;20454;-76
2021/03/15 02:31:30;;;;;;;8.50;7.17;;;6.20;99.90;;;;;;5086531;28;20455;-76
2021/03/15 02:33:55;;;;;;;7.87;5.70;;;6.20;99.90;;;;;;5104070;28;20921;-76
2021/03/15 02:36:24;;;;;;;8.50;5.50;;;6.00;99.90;;;;;;5104330;28;20446;-76
2021/03/15 02:38:52;;;;;;;8.90;6.10;;;6.00;99.90;;;;;;5107580;28;20187;-76
2021/03/15 02:41:19;;;;;;;8.73;6.10;;;6.30;99.90;;;;;;5105597;28;20428;-76
2021/03/15 02:44:00;;;;;;;7.93;5.90;;;6.20;99.90;;;;;;5074149;28;20466;-75
2021/03/15 02:46:29;;;;;;;7.80;6.10;;;6.10;99.90;;;;;;5081902;28;20430;-76
2021/03/15 02:48:59;;;;;;;7.83;5.53;;;6.10;99.90;;;;;;5089221;28;20413;-75
2021/03/15 02:51:27;;;;;;;8.17;6.77;;;6.20;99.90;;;;;;5099334;28;20423;-76
2021/03/15 02:53:55;;;;;;;9.70;6.27;;;6.50;99.90;;;;;;5104892;28;20422;-76
2021/03/15 02:56:26;;;;;;;11.53;6.63;;;6.30;99.90;;;;;;5091284;28;20437;-76
2021/03/15 02:58:55;;;;;;;8.40;6.10;;;6.30;99.90;;;;;;5093241;28;20490;-76
2021/03/15 03:01:25;;;;;;;10.23;6.87;;;6.40;99.90;;;;;;5093657;28;20457;-76
2021/03/15 03:03:55;;;;;;;7.07;6.20;;;6.30;99.90;;;;;;5111391;28;20464;-76
2021/03/15 03:06:25;;;;;;;9.17;6.60;;;6.30;99.90;;;;;;5107518;27;20426;-76
2021/03/15 03:08:52;;;;;;;8.03;6.43;;;6.20;99.90;;;;;;5111199;28;20489;-76
2021/03/15 03:11:21;;;;;;;8.20;6.60;;;6.20;99.90;;;;;;5112330;27;20445;-75
2021/03/15 03:13:49;;;;;;;12.83;6.97;;;6.30;99.90;;;;;;5085711;28;20462;-76
2021/03/15 03:16:16;;;;;;;12.10;7.63;;;6.50;99.90;;;;;;5096062;28;20971;-76
2021/03/15 03:18:42;;;;;;;8.43;7.00;;;6.40;99.90;;;;;;5103855;28;20444;-76
2021/03/15 03:21:09;;;;;;;8.27;6.87;;;6.30;99.90;;;;;;5106136;28;20464;-76
2021/03/15 03:23:37;;;;;;;8.67;6.87;;;6.60;99.90;;;;;;5102943;28;20461;-76
2021/03/15 03:26:07;;;;;;;8.47;6.53;;;6.70;99.90;;;;;;5110874;28;20425;-75
2021/03/15 03:28:34;;;;;;;7.93;7.07;;;6.30;99.90;;;;;;5097577;28;20487;-76
2021/03/15 03:31:04;;;;;;;7.53;6.83;;;6.50;99.90;;;;;;5098778;28;20973;-76
2021/03/15 03:33:30;;;;;;;9.07;7.60;;;6.40;99.90;;;;;;5086382;28;20429;-76
2021/03/15 03:35:55;;;;;;;8.97;7.30;;;6.60;99.90;;;;;;5110325;28;20466;-76
2021/03/15 03:38:21;;;;;;;10.73;7.50;;;6.50;99.90;;;;;;5104432;28;20535;-76
2021/03/15 03:40:47;;;;;;;7.20;6.50;;;6.50;99.90;;;;;;5104199;28;20192;-76
2021/03/15 03:43:13;;;;;;;9.20;7.30;;;6.60;99.90;;;;;;5091196;28;20244;-75
2021/03/15 03:45:39;;;;;;;8.50;6.77;;;6.40;99.90;;;;;;5120994;27;20414;-76
2021/03/15 03:48:05;;;;;;;8.47;7.67;;;6.50;99.90;;;;;;5073742;28;20515;-75
2021/03/15 03:50:34;;;;;;;10.23;6.70;;;6.50;99.90;;;;;;5110189;28;20182;-76
2021/03/15 03:53:16;;;;;;;9.07;7.30;;;6.30;99.90;;;;;;5105797;28;20915;-75
2021/03/15 03:56:00;;;;;;;11.23;7.47;;;6.50;99.90;;;;;;5088099;28;20470;-76
2021/03/15 03:58:30;;;;;;;8.63;7.50;;;6.50;99.90;;;;;;5099296;28;20907;-76
2021/03/15 04:00:57;;;;;;;9.33;7.17;;;6.40;99.90;;;;;;5090686;28;20414;-76
2021/03/15 04:03:26;;;;;;;10.40;7.90;;;6.50;99.90;;;;;;5090544;28;20518;-76
2021/03/15 04:06:03;;;;;;;10.37;6.87;;;6.50;99.90;;;;;;5085266;28;20418;-76
2021/03/15 04:08:38;;;;;;;10.60;7.87;;;6.40;99.90;;;;;;5098508;28;20499;-75
2021/03/15 04:11:06;;;;;;;10.73;8.27;;;6.60;99.90;;;;;;5078780;28;20859;-76
2021/03/15 04:13:34;;;;;;;9.70;8.60;;;6.30;99.90;;;;;;5101480;28;21084;-76
2021/03/15 04:16:04;;;;;;;9.47;8.13;;;6.50;99.90;;;;;;5090416;28;20522;-76
2021/03/15 04:18:32;;;;;;;12.00;8.77;;;6.40;99.90;;;;;;5082461;28;20421;-76
2021/03/15 04:21:00;;;;;;;12.40;9.77;;;6.30;99.90;;;;;;5075635;28;20437;-76
2021/03/15 04:23:37;;;;;;;13.27;9.47;;;6.30;99.90;;;;;;5083781;28;20461;-75
2021/03/15 04:26:05;;;;;;;11.23;8.97;;;6.50;99.90;;;;;;5110987;28;20421;-76
2021/03/15 04:28:34;;;;;;;10.87;9.03;;;6.30;99.90;;;;;;5096749;28;20435;-76
2021/03/15 04:31:01;;;;;;;17.03;9.40;;;6.30;99.90;;;;;;5085342;28;20426;-76
2021/03/15 04:33:30;;;;;;;13.40;10.23;;;6.60;99.90;;;;;;5089284;28;20783;-76
2021/03/15 04:35:56;;;;;;;12.10;10.10;;;6.40;99.90;;;;;;5095400;28;20839;-76
2021/03/15 04:38:24;;;;;;;12.60;9.50;;;6.30;99.90;;;;;;5104980;28;20424;-76
2021/03/15 04:40:52;;;;;;;10.73;8.90;;;6.40;99.90;;;;;;5106967;28;20831;-76
2021/03/15 04:43:19;;;;;;;12.77;10.00;;;6.30;99.90;;;;;;5084652;28;20466;-76
2021/03/15 04:45:45;;;;;;;10.97;8.80;;;6.40;99.90;;;;;;5060804;28;20933;-76
2021/03/15 04:48:15;;;;;;;12.00;9.60;;;6.40;99.90;;;;;;5089246;28;20414;-76
2021/03/15 04:50:44;;;;;;;11.60;9.03;;;6.40;99.90;;;;;;5110350;28;20421;-76
2021/03/15 04:53:11;;;;;;;11.63;8.93;;;6.60;99.90;;;;;;5108595;28;20410;-75
2021/03/15 04:55:40;;;;;;;11.43;9.53;;;6.40;99.90;;;;;;5110561;28;20418;-76
2021/03/15 04:58:08;;;;;;;10.87;8.93;;;6.60;99.90;;;;;;5109099;27;20425;-75
2021/03/15 05:00:37;;;;;;;12.77;9.10;;;6.50;99.90;;;;;;5082427;28;20423;-76
2021/03/15 05:03:06;;;;;;;10.93;9.50;;;6.50;99.90;;;;;;5087311;28;20418;-76
2021/03/15 05:05:34;;;;;;;9.83;7.80;;;6.50;99.90;;;;;;5089756;28;20513;-75
2021/03/15 05:08:02;;;;;;;9.30;7.23;;;6.50;99.90;;;;;;5096574;28;20426;-75
2021/03/15 05:10:29;;;;;;;6.80;6.10;;;6.60;99.90;;;;;;5091401;28;20571;-76
2021/03/15 05:12:56;;;;;;;6.43;5.20;;;6.40;99.90;;;;;;5108386;28;20430;-76
2021/03/15 05:15:22;;;;;;;6.00;5.20;;;6.60;99.90;;;;;;5081487;28;20510;-75
2021/03/15 05:17:50;;;;;;;5.37;4.77;;;6.20;99.90;;;;;;5100414;28;20546;-75
2021/03/15 05:20:17;;;;;;;6.37;5.10;;;6.20;99.90;;;;;;5108023;28;21103;-75
2021/03/15 05:22:43;;;;;;;5.53;4.80;;;6.30;99.90;;;;;;5103296;28;20518;-76
2021/03/15 05:25:11;;;;;;;6.00;5.40;;;6.40;99.90;;;;;;5109986;28;20460;-76
2021/03/15 05:27:38;;;;;;;5.00;4.30;;;6.30;99.90;;;;;;5108610;28;20430;-75
2021/03/15 05:30:08;;;;;;;6.70;5.00;;;6.50;99.90;;;;;;5092098;28;20430;-75
2021/03/15 05:32:37;;;;;;;5.70;4.50;;;6.30;99.90;;;;;;5093732;28;20513;-75
2021/03/15 05:35:05;;;;;;;7.63;5.20;;;6.20;99.90;;;;;;5101122;28;20448;-75
2021/03/15 05:37:31;;;;;;;5.97;5.10;;;6.10;99.90;;;;;;5103084;28;20770;-75
2021/03/15 05:39:56;;;;;;;9.00;5.20;;;6.00;99.90;;;;;;5087292;28;20434;-76
2021/03/15 05:42:22;;;;;;;8.27;6.70;;;6.30;99.90;;;;;;5106878;28;20426;-76
2021/03/15 05:45:25;;;;;;;8.57;6.20;;;6.10;99.90;;;;;;5087082;28;20503;-76
2021/03/15 05:47:56;;;;;;;7.47;5.40;;;6.00;99.90;;;;;;5083545;28;20202;-75
2021/03/15 05:50:59;;;;;;;7.60;6.40;;;5.90;99.90;;;;;;5096479;28;20413;-75
2021/03/15 05:53:53;;;;;;;8.23;6.37;;;5.80;99.90;;;;;;5094488;28;20459;-75
2021/03/15 05:56:41;;;;;;;8.20;6.40;;;5.90;99.90;;;;;;5100419;28;20462;-75
2021/03/15 05:59:18;;;;;;;8.00;5.90;;;6.00;99.90;;;;;;5085015;28;20440;-75
2021/03/15 06:01:51;;;;;;;8.10;5.87;;;6.10;99.90;;;;;;5102408;28;20434;-75
2021/03/15 06:04:33;;;;;;;7.77;5.80;;;6.10;99.90;;;;;;5087471;28;20473;-75
2021/03/15 06:07:03;;;;;;;7.77;6.23;;;6.20;99.90;;;;;;5092132;28;20551;-75
2021/03/15 06:09:42;;;;;;;7.50;6.10;;;6.30;99.90;;;;;;5086782;28;20768;-75
2021/03/15 06:12:19;;;;;;;9.47;6.37;;;6.00;99.90;;;;;;5088579;28;20410;-75
2021/03/15 06:14:47;;;;;;;10.00;7.97;;;6.30;99.90;;;;;;5081868;28;21015;-75
2021/03/15 06:17:14;;;;;;;8.93;7.30;;;6.00;99.90;;;;;;5081626;28;20440;-75
2021/03/15 06:19:41;;;;;;;9.03;6.70;;;6.30;99.90;;;;;;5094247;28;20418;-75
2021/03/15 06:22:09;;;;;;;10.23;7.63;;;6.40;99.90;;;;;;5108749;28;20428;-74
2021/03/15 06:24:35;;;;;;;9.83;8.80;;;6.20;99.90;;;;;;5106992;28;20504;-74
2021/03/15 06:27:03;;;;;;;9.70;8.47;;;6.30;99.90;;;;;;5077191;28;20438;-75
2021/03/15 06:29:30;;;;;;;9.13;7.60;;;6.40;99.90;;;;;;5067541;28;20435;-74
2021/03/15 06:31:58;;;;;;;11.40;8.90;;;6.20;99.90;;;;;;5083023;28;20493;-75
2021/03/15 06:34:28;;;;;;;11.67;9.40;;;6.30;99.90;;;;;;5088821;28;20456;-75
2021/03/15 06:36:55;;;;;;;13.10;10.17;;;6.20;99.90;;;;;;5091671;28;20548;-75
2021/03/15 06:39:22;;;;;;;11.07;9.10;;;6.50;99.90;;;;;;5088480;28;20433;-75
2021/03/15 06:41:52;;;;;;;12.30;9.07;;;6.30;99.90;;;;;;5088041;28;20421;-75
2021/03/15 06:44:17;;;;;;;14.13;10.77;;;6.40;99.90;;;;;;5100331;28;20485;-74
2021/03/15 06:46:43;;;;;;;13.60;11.30;;;6.30;99.90;;;;;;5084757;28;20427;-75
2021/03/15 06:49:09;;;;;;;13.33;11.87;;;6.30;99.90;;;;;;5110394;27;20188;-75
2021/03/15 06:51:35;;;;;;;15.13;11.23;;;6.50;99.90;;;;;;5118854;28;20421;-75
2021/03/15 06:54:01;;;;;;;13.60;11.20;;;6.50;99.90;;;;;;5093734;28;20441;-74
2021/03/15 06:56:27;;;;;;;14.73;11.47;;;6.40;99.90;;;;;;5086825;28;20422;-74
2021/03/15 06:58:55;;;;;;;13.67;11.90;;;6.50;99.90;;;;;;5089827;28;20183;-75
2021/03/15 07:01:21;;;;;;;15.20;10.87;;;6.60;99.90;;;;;;5079942;28;20268;-75
2021/03/15 07:03:50;;;;;;;14.43;10.60;;;6.60;99.90;;;;;;5086271;28;20483;-75
2021/03/15 07:06:19;;;;;;;16.20;11.93;;;6.50;99.90;;;;;;5068981;28;20506;-74
2021/03/15 07:08:46;;;;;;;14.33;11.90;;;6.60;99.90;;;;;;5094510;28;21342;-75
2021/03/15 07:11:23;;;;;;;12.77;10.43;;;6.70;99.90;;;;;;5086419;28;20446;-76
2021/03/15 07:13:50;;;;;;;15.30;9.83;;;6.60;99.90;;;;;;5088929;28;20424;-77
2021/03/15 07:16:24;;;;;;;12.73;9.53;;;6.70;99.90;;;;;;5083578;28;20429;-76
2021/03/15 07:18:49;;;;;;;15.13;10.93;;;6.70;99.90;;;;;;5086461;28;20418;-76
2021/03/15 07:21:28;;;;;;;13.23;11.73;;;6.70;99.90;;;;;;5119948;28;20426;-76
2021/03/15 07:23:57;;;;;;;13.70;11.20;;;6.60;99.90;;;;;;5073926;28;20642;-77
2021/03/15 07:26:27;;;;;;;15.60;11.70;;;7.00;99.90;;;;;;5093483;28;20926;-76
2021/03/15 07:28:54;;;;;;;15.70;11.53;;;7.00;99.90;;;;;;5102279;28;20436;-77
2021/03/15 07:31:19;;;;;;;13.80;11.60;;;6.90;99.90;;;;;;5080947;28;20450;-77
2021/03/15 07:33:46;;;;;;;12.43;9.27;;;7.10;99.90;;;;;;5091573;28;20450;-76
2021/03/15 07:36:14;;;;;;;15.33;10.00;;;7.10;99.90;;;;;;5088134;28;20188;-76
2021/03/15 07:38:40;;;;;;;12.53;10.40;;;7.20;99.90;;;;;;5099003;28;20433;-76
2021/03/15 07:41:19;;;;;;;14.67;9.80;;;7.50;99.90;;;;;;5089609;28;20864;-77
2021/03/15 07:43:45;;;;;;;12.80;9.80;;;7.60;99.90;;;;;;5108894;28;21156;-77
2021/03/15 07:46:27;;;;;;;12.27;9.70;;;7.60;99.90;;;;;;5091379;27;20430;-77
2021/03/15 07:48:55;;;;;;;10.60;9.13;;;7.50;99.90;;;;;;5093965;28;20422;-77
2021/03/15 07:51:33;;;;;;;15.73;9.40;;;7.80;99.90;;;;;;5103020;28;20504;-76
2021/03/15 07:54:09;;;;;;;11.50;8.40;;;7.90;99.90;;;;;;5078626;28;20424;-77
2021/03/15 07:56:35;;;;;;;12.80;7.60;;;8.00;99.90;;;;;;5105838;28;20421;-77
2021/03/15 07:59:02;;;;;;;9.30;6.30;;;8.10;99.90;;;;;;5110968;28;20460;-77
2021/03/15 08:01:28;;;;;;;11.80;6.90;;;7.80;99.90;;;;;;5083262;28;20950;-77
2021/03/15 08:03:54;;;;;;;14.80;7.30;;;7.90;99.90;;;;;;5097095;28;20445;-77
2021/03/15 08:06:21;;;;;;;8.83;5.70;;;7.70;99.90;;;;;;5073409;28;20835;-77
2021/03/15 08:08:48;;;;;;;8.93;6.17;;;7.80;99.90;;;;;;5104249;28;20188;-76
2021/03/15 08:11:19;;;;;;;8.37;6.10;;;7.60;99.90;;;;;;5106212;28;20560;-76
2021/03/15 08:13:47;;;;;;;8.70;5.90;;;7.60;99.90;;;;;;5111379;28;20937;-76
2021/03/15 08:16:14;;;;;;;7.57;5.57;;;7.60;99.90;;;;;;5091081;28;20425;-77
2021/03/15 08:18:46;;;;;;;8.40;6.70;;;7.80;99.90;;;;;;5090186;28;20763;-77
2021/03/15 08:21:26;;;;;;;12.30;6.73;;;7.60;99.90;;;;;;5089588;28;20438;-76
2021/03/15 08:23:54;;;;;;;9.00;6.07;;;7.30;99.90;;;;;;5105917;28;20888;-77
2021/03/15 08:26:21;;;;;;;11.00;7.27;;;7.50;99.90;;;;;;5102810;28;20505;-76
2021/03/15 08:28:50;;;;;;;13.97;7.23;;;7.40;99.90;;;;;;5085833;28;20472;-77
2021/03/15 08:31:23;;;;;;;9.77;6.80;;;7.30;99.90;;;;;;5079417;28;20427;-76
2021/03/15 08:33:50;;;;;;;9.73;5.70;;;7.50;99.90;;;;;;5091435;28;20475;-77
2021/03/15 08:36:16;;;;;;;10.77;5.87;;;7.60;99.90;;;;;;5079740;28;20487;-76
2021/03/15 08:38:43;;;;;;;10.43;5.87;;;7.40;99.90;;;;;;5107456;28;20783;-77
2021/03/15 08:41:21;;;;;;;10.47;6.20;;;7.50;99.90;;;;;;5109092;28;20422;-77
2021/03/15 08:43:51;;;;;;;7.67;5.30;;;7.60;99.90;;;;;;5106722;28;20449;-76
2021/03/15 08:46:31;;;;;;;7.57;4.83;;;7.80;99.90;;;;;;5085807;28;20430;-76
2021/03/15 08:49:07;;;;;;;6.70;5.60;;;8.10;99.90;;;;;;5121827;27;20491;-77
2021/03/15 08:51:32;;;;;;;6.93;4.90;;;8.30;99.90;;;;;;5088731;28;20529;-77
2021/03/15 08:53:59;;;;;;;10.10;4.90;;;8.70;99.90;;;;;;5093443;28;20505;-77
2021/03/15 08:56:28;;;;;;;6.10;4.73;;;8.60;99.90;;;;;;5103560;28;20211;-77
2021/03/15 08:58:55;;;;;;;7.17;4.17;;;8.70;99.90;;;;;;5100654;28;20560;-77
2021/03/15 09:01:21;;;;;;;7.10;4.17;;;8.60;99.90;;;;;;5085352;28;20430;-76
2021/03/15 09:03:55;;;;;;;6.70;4.00;;;8.40;99.90;;;;;;5088345;28;20566;-77
2021/03/15 09:06:33;;;;;;;5.70;4.43;;;8.40;99.90;;;;;;5102161;28;20564;-76
2021/03/15 09:08:59;;;;;;;8.57;4.60;;;8.20;99.90;;;;;;5087931;28;20865;-77
2021/03/15 09:11:36;;;;;;;7.40;4.80;;;8.20;99.90;;;;;;5094175;28;20418;-77
2021/03/15 09:14:17;;;;;;;7.53;4.40;;;8.40;99.90;;;;;;5110199;28;20222;-76
2021/03/15 09:16:59;;;;;;;8.83;4.93;;;8.40;99.90;;;;;;5094350;28;20435;-77
2021/03/15 09:19:35;;;;;;;9.70;4.50;;;8.20;99.90;;;;;;5092540;28;20413;-77
2021/03/15 09:22:20;;;;;;;8.17;5.90;;;8.00;99.90;;;;;;5088157;28;20423;-77
2021/03/15 09:24:46;;;;;;;7.63;4.70;;;8.10;99.90;;;;;;5080040;28;20489;-77
2021/03/15 09:27:39;;;;;;;10.30;6.57;;;8.10;99.90;;;;;;5095698;28;20442;-77
2021/03/15 09:30:17;;;;;;;10.20;5.00;;;8.30;99.90;;;;;;5090568;28;20280;-76
2021/03/15 09:32:55;;;;;;;11.63;4.73;;;8.30;99.90;;;;;;5086727;28;20433;-76
2021/03/15 09:35:40;;;;;;;11.20;4.50;;;8.30;99.90;;;;;;5089999;28;20421;-77
2021/03/15 09:38:13;;;;;;;7.40;3.47;;;8.40;99.90;;;;;;5099057;28;20414;-77
2021/03/15 09:40:44;;;;;;;11.90;4.57;;;8.90;99.90;;;;;;5103112;28;20425;-77
2021/03/15 09:43:18;;;;;;;13.87;3.70;;;9.00;99.90;;;;;;5108393;28;20943;-77
2021/03/15 09:45:44;;;;;;;5.73;3.70;;;9.00;99.90;;;;;;5108281;27;20463;-76
2021/03/15 09:48:17;;;;;;;9.53;3.93;;;9.10;99.90;;;;;;5085416;28;20427;-77
2021/03/15 09:50:50;;;;;;;5.73;2.80;;;9.20;99.90;;;;;;5093755;28;20421;-77
2021/03/15 09:53:17;;;;;;;14.07;4.17;;;9.30;99.90;;;;;;5104355;28;20421;-77
2021/03/15 09:55:44;;;;;;;8.33;3.20;;;9.20;99.90;;;;;;5099155;28;20500;-77
2021/03/15 09:58:14;;;;;;;7.37;2.93;;;9.20;99.90;;;;;;5072518;28;20415;-77
2021/03/15 10:00:41;;;;;;;6.80;2.30;;;9.60;99.90;;;;;;5093060;28;20461;-77
2021/03/15 10:03:07;;;;;;;2.70;1.90;;;9.60;99.90;;;;;;5068378;28;20849;-77
2021/03/15 10:05:33;;;;;;;5.67;2.60;;;9.60;99.90;;;;;;5091227;28;20426;-77
2021/03/15 10:07:59;;;;;;;3.90;1.93;;;9.40;99.90;;;;;;5100764;28;20418;-77
2021/03/15 10:10:25;;;;;;;4.10;2.03;;;9.40;99.90;;;;;;5086768;28;20749;-77
2021/03/15 10:13:06;;;;;;;11.43;2.40;;;9.30;99.90;;;;;;5080309;28;20456;-77
2021/03/15 10:15:32;;;;;;;7.53;2.53;;;9.20;99.90;;;;;;5071364;28;20438;-77
2021/03/15 10:17:58;;;;;;;4.97;1.83;;;9.40;99.90;;;;;;5090054;28;20453;-77
2021/03/15 10:20:27;;;;;;;5.27;2.60;;;9.10;99.90;;;;;;5081256;28;21120;-77
2021/03/15 10:22:53;;;;;;;6.00;2.13;;;9.10;99.90;;;;;;5086899;28;20496;-77
2021/03/15 10:25:19;;;;;;;2.63;1.23;;;9.20;99.90;;;;;;5100142;28;20482;-77
2021/03/15 10:27:57;;;;;;;5.30;1.90;;;9.10;99.90;;;;;;5092776;28;21185;-77
2021/03/15 10:30:31;;;;;;;4.70;1.90;;;8.90;99.90;;;;;;5087016;28;20454;-77
2021/03/15 10:32:59;;;;;;;2.83;2.17;;;8.70;99.90;;;;;;5095658;28;20437;-77
2021/03/15 10:35:26;;;;;;;8.00;1.70;;;8.70;99.90;;;;;;5068441;28;20410;-77
2021/03/15 10:37:56;;;;;;;5.67;1.70;;;8.70;99.90;;;;;;5097668;28;20421;-77
2021/03/15 10:40:23;;;;;;;4.33;1.60;;;8.60;99.90;;;;;;5088936;28;20416;-77
2021/03/15 10:42:50;;;;;;;5.63;2.13;;;8.50;99.90;;;;;;5099081;28;20421;-76
2021/03/15 10:45:17;;;;;;;5.30;1.70;;;8.50;99.90;;;;;;5090314;28;20545;-76
2021/03/15 10:47:43;;;;;;;5.43;1.93;;;8.50;99.90;;;;;;5088891;28;20438;-77
2021/03/15 10:50:47;;;;;;;5.77;1.47;;;8.30;99.90;;;;;;5091815;28;20975;-76
2021/03/15 10:53:18;;;;;;;3.63;1.40;;;8.30;99.90;;;;;;5028585;28;20547;-77
2021/03/15 10:55:45;;;;;;;4.37;1.83;;;8.30;99.90;;;;;;5074406;28;20441;-75
2021/03/15 10:58:11;;;;;;;5.43;1.70;;;8.20;99.90;;;;;;5055117;28;20426;-77
2021/03/15 11:00:48;;;;;;;4.23;1.43;;;8.40;99.90;;;;;;5085664;28;20938;-76
2021/03/15 11:03:20;;;;;;;7.63;1.73;;;8.60;99.90;;;;;;5087829;28;20433;-78
2021/03/15 11:05:46;;;;;;;3.93;1.90;;;8.70;99.90;;;;;;5073104;28;20517;-77
2021/03/15 11:08:21;;;;;;;3.43;1.60;;;8.90;99.90;;;;;;5093281;28;21026;-76
2021/03/15 11:10:47;;;;;;;3.33;2.10;;;9.10;99.90;;;;;;5106737;28;20250;-77
2021/03/15 11:13:19;;;;;;;5.13;3.53;;;9.20;99.90;;;;;;5103379;28;21136;-77
2021/03/15 11:15:46;;;;;;;3.37;2.20;;;9.40;99.90;;;;;;5074641;28;20449;-77
2021/03/15 11:18:13;;;;;;;3.70;2.07;;;9.80;99.90;;;;;;5083893;28;20450;-77
2021/03/15 11:20:51;;;;;;;3.33;2.10;;;10.00;99.90;;;;;;5104858;28;20526;-78
2021/03/15 11:23:34;;;;;;;4.73;2.23;;;10.20;99.90;;;;;;5075217;28;20478;-77
2021/03/15 11:26:13;;;;;;;7.37;1.80;;;10.30;99.90;;;;;;5069018;28;20418;-77
2021/03/15 11:28:45;;;;;;;4.27;1.70;;;9.90;99.90;;;;;;5091702;28;20933;-77
2021/03/15 11:31:17;;;;;;;4.10;1.50;;;9.80;99.90;;;;;;5090188;28;20538;-77
2021/03/15 11:33:54;;;;;;;5.37;2.00;;;9.70;99.90;;;;;;5084542;28;20833;-78
2021/03/15 11:36:22;;;;;;;5.33;1.43;;;9.30;99.90;;;;;;5081479;28;20414;-77
2021/03/15 11:38:59;;;;;;;3.10;1.17;;;9.10;99.90;;;;;;5107467;28;20484;-77
2021/03/15 11:41:27;;;;;;;2.93;1.40;;;8.90;99.90;;;;;;5098727;28;20898;-76
2021/03/15 11:43:53;;;;;;;3.13;1.20;;;8.70;99.90;;;;;;5089845;28;20454;-76
2021/03/15 11:46:19;;;;;;;3.80;1.60;;;8.90;99.90;;;;;;5090607;28;20789;-77
2021/03/15 11:48:46;;;;;;;2.17;1.50;;;9.20;99.90;;;;;;5075148;28;20438;-77
2021/03/15 11:51:17;;;;;;;4.03;1.60;;;9.30;99.90;;;;;;5082131;28;20422;-76
2021/03/15 11:53:43;;;;;;;4.60;1.90;;;9.60;99.90;;;;;;5091283;28;20457;-77
2021/03/15 11:56:10;;;;;;;2.23;1.10;;;9.80;99.90;;;;;;5101629;28;20426;-77
2021/03/15 11:58:35;;;;;;;4.27;1.93;;;9.90;99.90;;;;;;5104899;28;20902;-76
2021/03/15 12:01:03;;;;;;;3.50;1.43;;;10.20;99.90;;;;;;5089580;28;20419;-76
2021/03/15 12:03:29;;;;;;;4.67;2.20;;;10.30;99.90;;;;;;5097642;28;20211;-76
2021/03/15 12:05:55;;;;;;;6.70;2.10;;;10.80;99.90;;;;;;5086138;28;20406;-76
2021/03/15 12:08:21;;;;;;;2.67;1.30;;;10.90;99.90;;;;;;5095987;28;20422;-76
2021/03/15 12:10:46;;;;;;;3.97;2.00;;;11.10;99.90;;;;;;5090158;28;20433;-76
2021/03/15 12:13:12;;;;;;;3.50;1.57;;;11.30;99.90;;;;;;5081221;28;20215;-76
2021/03/15 12:15:38;;;;;;;2.10;1.20;;;11.50;99.90;;;;;;5110086;28;20197;-76
2021/03/15 12:18:05;;;;;;;1.90;0.90;;;11.70;99.90;;;;;;5104311;28;20667;-76
2021/03/15 12:20:32;;;;;;;3.80;1.47;;;11.60;99.90;;;;;;5100156;28;20173;-76
2021/03/15 12:22:57;;;;;;;3.67;1.60;;;11.40;99.90;;;;;;5096861;28;20527;-76
2021/03/15 12:25:24;;;;;;;2.20;1.27;;;11.30;99.90;;;;;;5072045;28;20458;-76
2021/03/15 12:27:49;;;;;;;3.13;1.60;;;11.20;99.90;;;;;;5072029;28;20778;-76
2021/03/15 12:30:16;;;;;;;2.53;1.30;;;11.50;99.90;;;;;;5088089;28;20518;-76
2021/03/15 12:32:42;;;;;;;4.97;1.27;;;11.60;99.90;;;;;;5091127;28;20212;-76
2021/03/15 12:35:08;;;;;;;1.30;0.80;;;11.90;99.90;;;;;;5085247;28;20940;-77
2021/03/15 12:37:34;;;;;;;1.37;0.90;;;12.00;99.90;;;;;;5091737;28;20184;-77
2021/03/15 12:40:00;;;;;;;2.10;0.90;;;12.10;99.90;;;;;;5088781;28;20502;-77
2021/03/15 12:42:26;;;;;;;4.33;1.13;;;12.20;99.90;;;;;;5096627;28;20456;-76
2021/03/15 12:44:52;;;;;;;2.40;1.40;;;12.10;99.90;;;;;;5109139;28;20461;-77
2021/03/15 12:47:17;;;;;;;1.73;0.80;;;12.10;99.90;;;;;;5090908;28;20271;-77
2021/03/15 12:49:45;;;;;;;2.60;1.40;;;12.00;99.90;;;;;;5086565;28;20437;-77
2021/03/15 12:52:11;;;;;;;2.90;1.20;;;11.90;99.90;;;;;;5094866;28;20173;-77
2021/03/15 12:54:36;;;;;;;4.60;1.50;;;11.80;99.90;;;;;;5088322;28;20934;-77
2021/03/15 12:57:02;;;;;;;2.57;1.00;;;11.70;99.90;;;;;;5088167;28;20208;-77
2021/03/15 12:59:28;;;;;;;2.97;1.40;;;11.40;99.90;;;;;;5098429;28;20188;-77
2021/03/15 13:01:56;;;;;;;2.47;1.93;;;11.20;99.90;;;;;;5091816;28;20497;-82
2021/03/15 13:04:22;;;;;;;3.33;1.80;;;10.50;99.90;;;;;;5086780;28;20216;-83